Syracuse, NE

8:40 AM CST on February 12, 2016 (GMT -0600)
Kosiba Home | | Change Station
CLOSE
Current Station
Personal Weather Station
Location: Syracuse, NE
Elevation: 1119 ft
Nearby Weather Stations

Elev 1119 ft 40.63 °N, 96.22 °W | Updated 2 minutes ago

Overcast
Overcast
23.0 °F
Feels Like 13 °F
N
9.4
Wind Variable Wind from NNW

Today
High -- | Low -- °F
--% Chance of Precip.
Yesterday
High -- | Low -- °F
Precip. -- in
Pressure 30.41 in
Visibility 10.0 miles
Clouds Scattered Clouds 1400 ft
Mostly Cloudy 2600 ft
Overcast 3600 ft
Windchill 13 °F
Dew Point 17 °F
Humidity 76%
Rainfall 0.00 in
Snow Depth Not available.
7:23 AM 5:55 PM
Waxing Crescent, 21% visible
METAR KAFK 121415Z AUTO 35012KT 10SM SCT014 BKN026 OVC036 M05/M07 A3041 RMK AO2 T10471074
Pressure 30.41 in
Visibility 10.0 miles
Clouds Scattered Clouds 1400 ft
Mostly Cloudy 2600 ft
Overcast 3600 ft
Windchill 13 °F
Dew Point 17 °F
Humidity 76%
Rainfall 0.00 in
Snow Depth Not available.
7:23 AM 5:55 PM
Waxing Crescent, 21% visible
METAR KAFK 121415Z AUTO 35012KT 10SM SCT014 BKN026 OVC036 M05/M07 A3041 RMK AO2 T10471074

10-Day Weather Forecast

Almanac

Astronomy

Feb. 12, 2016 Rise Set
Actual Time
Civil Twilight
Nautical Twilight
Astronomical Twilight
Moon
Length of Visible Light
Length of Day
Tomorrow will be .
, % of the Moon is Illuminated

Today's Extremes

State Highs State Lows

Community

WunderPhotos

Upload Photos

1,892,316 photos uploaded!

WunderBlog® & News

Nearby

Air Quality

  Air Quality AQ Index Pollutant
Not available.

Snow Depth

Station Depth Elevation

Earthquake Activity

City Distance Mag. Time & Date
Minimum magnitude displayed is 2.5.

Coastal Water Temperatures

Place Temperature

Stations

Nearby Weather Stations

Station Location Temp. Windchill Dew Point Humidity Wind Precip. Elev Updated Type
                   

Watches & Warnings

There are currently no watches in effect.